Time;durP1;ratioP1;P1;durP2;ratioP2;P2;SDS_P1;SDS_P2;PMS_P1;PMS_P2;Temp;Humidity;BMP_temperature;BMP_pressure;BME280_temperature;BME280_humidity;BME280_pressure;Samples;Min_cycle;Max_cycle;Signal;HPM_P1;HPM_P2
2022/12/05 00:01:23;;;;;;;34.53;16.85;;;;;;;;;;4972739;28;20174;-43
2022/12/05 00:03:50;;;;;;;28.88;17.83;;;;;;;;;;4973134;28;20252;-40
2022/12/05 00:06:16;;;;;;;34.85;18.40;;;;;;;;;;4965077;28;20185;-39
2022/12/05 00:08:43;;;;;;;30.23;17.75;;;;;;;;;;4972845;28;20609;-41
2022/12/05 00:11:13;;;;;;;34.10;17.80;;;;;;;;;;4972783;28;20615;-41
2022/12/05 00:13:41;;;;;;;38.67;19.27;;;;;;;;;;4972565;28;20569;-41
2022/12/05 00:16:08;;;;;;;48.38;23.23;;;;;;;;;;4971569;28;20703;-40
2022/12/05 00:18:35;;;;;;;33.67;18.13;;;;;;;;;;4972747;28;20177;-40
2022/12/05 00:21:01;;;;;;;28.50;17.67;;;;;;;;;;4972719;28;20174;-41
2022/12/05 00:23:27;;;;;;;30.97;18.10;;;;;;;;;;4972741;28;20197;-39
2022/12/05 00:25:53;;;;;;;27.73;18.17;;;;;;;;;;4964849;28;20424;-40
2022/12/05 00:28:19;;;;;;;35.70;18.23;;;;;;;;;;4972472;28;20530;-39
2022/12/05 00:30:45;;;;;;;29.17;19.10;;;;;;;;;;4972313;28;20427;-42
2022/12/05 00:33:11;;;;;;;34.07;19.60;;;;;;;;;;4972467;28;20474;-39
2022/12/05 00:35:37;;;;;;;33.70;18.27;;;;;;;;;;4970468;28;20416;-40
2022/12/05 00:38:03;;;;;;;31.50;19.30;;;;;;;;;;4968184;28;20413;-41
2022/12/05 00:40:29;;;;;;;31.67;18.20;;;;;;;;;;4976563;28;20432;-41
2022/12/05 00:42:55;;;;;;;33.33;19.27;;;;;;;;;;4968273;28;20481;-39
2022/12/05 00:45:21;;;;;;;33.33;18.77;;;;;;;;;;4976303;28;20449;-41
2022/12/05 00:47:47;;;;;;;29.48;18.63;;;;;;;;;;4976503;28;20209;-39
2022/12/05 00:50:13;;;;;;;34.37;18.53;;;;;;;;;;4976395;28;20245;-40
2022/12/05 00:52:39;;;;;;;28.40;18.33;;;;;;;;;;4973793;28;20432;-40
2022/12/05 00:55:05;;;;;;;33.57;19.07;;;;;;;;;;4972018;28;20769;-39
2022/12/05 00:57:31;;;;;;;35.97;19.60;;;;;;;;;;4975009;28;20413;-40
2022/12/05 00:59:57;;;;;;;31.95;18.33;;;;;;;;;;4976120;28;20643;-40
2022/12/05 01:02:23;;;;;;;30.30;18.10;;;;;;;;;;4976033;28;20197;-39
2022/12/05 01:04:49;;;;;;;32.17;17.43;;;;;;;;;;4976181;28;20421;-40
2022/12/05 01:07:15;;;;;;;27.53;17.63;;;;;;;;;;4976357;28;20438;-41
2022/12/05 01:09:41;;;;;;;29.43;18.43;;;;;;;;;;4972324;28;20453;-41
2022/12/05 01:12:07;;;;;;;34.23;21.53;;;;;;;;;;4975617;28;20495;-40
2022/12/05 01:14:33;;;;;;;34.83;18.45;;;;;;;;;;4974219;28;20945;-40
2022/12/05 01:16:59;;;;;;;31.52;19.00;;;;;;;;;;4969962;28;20265;-40
2022/12/05 01:19:28;;;;;;;35.75;20.50;;;;;;;;;;4975966;28;20205;-39
2022/12/05 01:21:54;;;;;;;29.75;17.60;;;;;;;;;;4967389;28;20590;-41
2022/12/05 01:24:20;;;;;;;34.25;19.00;;;;;;;;;;4975890;28;20804;-39
2022/12/05 01:26:47;;;;;;;34.75;18.65;;;;;;;;;;4967283;28;20184;-42
2022/12/05 01:29:14;;;;;;;33.50;18.50;;;;;;;;;;4975696;28;20737;-41
2022/12/05 01:31:40;;;;;;;29.90;16.90;;;;;;;;;;4967420;28;20522;-40
2022/12/05 01:34:07;;;;;;;31.63;18.90;;;;;;;;;;4975825;28;20192;-40
2022/12/05 01:36:33;;;;;;;33.53;16.80;;;;;;;;;;4975556;28;20409;-41
2022/12/05 01:38:59;;;;;;;29.47;19.03;;;;;;;;;;4975522;28;20174;-40
2022/12/05 01:41:30;;;;;;;26.67;17.70;;;;;;;;;;4975228;28;20417;-41
2022/12/05 01:43:58;;;;;;;35.45;18.50;;;;;;;;;;4975439;28;20272;-39
2022/12/05 01:46:24;;;;;;;33.65;18.08;;;;;;;;;;4975448;28;20182;-41
2022/12/05 01:48:52;;;;;;;31.02;18.17;;;;;;;;;;4974662;28;20189;-39
2022/12/05 01:51:18;;;;;;;28.00;17.35;;;;;;;;;;4974649;28;20169;-39
2022/12/05 01:53:45;;;;;;;30.35;17.77;;;;;;;;;;4975204;28;20195;-40
2022/12/05 01:56:12;;;;;;;30.92;17.85;;;;;;;;;;4975293;28;20178;-40
2022/12/05 01:58:40;;;;;;;24.70;16.00;;;;;;;;;;4975341;28;20545;-40
2022/12/05 02:01:05;;;;;;;38.60;19.88;;;;;;;;;;4969807;28;20666;-40
2022/12/05 02:03:31;;;;;;;33.87;17.13;;;;;;;;;;4974946;28;20224;-40
2022/12/05 02:05:58;;;;;;;33.10;17.47;;;;;;;;;;4975157;28;20410;-40
2022/12/05 02:08:27;;;;;;;34.38;18.65;;;;;;;;;;4966955;28;20969;-40
2022/12/05 02:10:54;;;;;;;28.33;17.58;;;;;;;;;;4974873;28;20194;-39
2022/12/05 02:13:38;;;;;;;32.63;17.65;;;;;;;;;;4974974;28;20189;-40
2022/12/05 02:16:23;;;;;;;27.40;17.58;;;;;;;;;;4974218;28;20242;-40
2022/12/05 02:18:49;;;;;;;31.40;17.45;;;;;;;;;;4968253;28;20239;-40
2022/12/05 02:21:27;;;;;;;35.07;18.53;;;;;;;;;;4974670;28;20263;-39
2022/12/05 02:24:03;;;;;;;31.33;18.10;;;;;;;;;;4967670;28;20777;-39
2022/12/05 02:26:42;;;;;;;32.50;16.67;;;;;;;;;;4973582;28;20170;-40
2022/12/05 02:29:20;;;;;;;30.85;17.50;;;;;;;;;;4969876;28;20201;-40
2022/12/05 02:32:01;;;;;;;30.02;18.60;;;;;;;;;;4974560;28;20220;-41
2022/12/05 02:34:31;;;;;;;25.90;17.25;;;;;;;;;;4972028;28;20212;-39
2022/12/05 02:37:20;;;;;;;27.52;17.75;;;;;;;;;;4971138;28;20177;-39
2022/12/05 02:39:56;;;;;;;26.20;16.60;;;;;;;;;;4973834;28;20204;-40
2022/12/05 02:42:25;;;;;;;31.27;17.70;;;;;;;;;;4974073;28;20211;-42
2022/12/05 02:44:57;;;;;;;27.25;18.35;;;;;;;;;;4969591;28;20204;-39
2022/12/05 02:47:26;;;;;;;30.02;19.65;;;;;;;;;;4974187;28;20185;-40
2022/12/05 02:49:53;;;;;;;25.15;16.67;;;;;;;;;;4974240;28;20263;-40
2022/12/05 02:52:20;;;;;;;27.50;16.88;;;;;;;;;;4973998;28;20259;-40
2022/12/05 02:54:47;;;;;;;32.90;18.88;;;;;;;;;;4966250;28;20189;-39
2022/12/05 02:57:14;;;;;;;30.15;18.30;;;;;;;;;;4974280;28;20321;-40
2022/12/05 02:59:40;;;;;;;32.15;17.92;;;;;;;;;;4973902;28;20185;-39
2022/12/05 03:02:21;;;;;;;27.80;15.50;;;;;;;;;;4965318;28;20216;-40
2022/12/05 03:04:47;;;;;;;33.50;18.67;;;;;;;;;;4971861;28;20417;-40
2022/12/05 03:07:15;;;;;;;27.20;14.73;;;;;;;;;;4967027;28;20182;-41
2022/12/05 03:09:49;;;;;;;34.00;18.50;;;;;;;;;;4966993;28;20819;-39
2022/12/05 03:12:20;;;;;;;31.05;17.15;;;;;;;;;;4973552;28;20196;-39
2022/12/05 03:15:05;;;;;;;29.70;17.13;;;;;;;;;;4965783;28;20671;-41
2022/12/05 03:17:36;;;;;;;35.95;17.02;;;;;;;;;;4974006;28;20681;-40
2022/12/05 03:20:08;;;;;;;32.63;17.98;;;;;;;;;;4973691;28;20281;-39
2022/12/05 03:22:41;;;;;;;34.83;19.30;;;;;;;;;;4965431;28;20186;-41
2022/12/05 03:25:07;;;;;;;40.30;19.50;;;;;;;;;;4973697;28;20186;-40
2022/12/05 03:27:51;;;;;;;30.83;17.30;;;;;;;;;;4975379;28;20166;-39
2022/12/05 03:30:18;;;;;;;30.40;17.70;;;;;;;;;;4966236;28;20602;-40
2022/12/05 03:32:53;;;;;;;31.88;17.27;;;;;;;;;;4973364;28;20240;-39
2022/12/05 03:35:35;;;;;;;30.98;18.60;;;;;;;;;;4973344;28;20181;-41
2022/12/05 03:38:04;;;;;;;30.80;17.27;;;;;;;;;;4967985;28;20606;-40
2022/12/05 03:40:52;;;;;;;31.52;17.67;;;;;;;;;;4973160;28;20590;-40
2022/12/05 03:43:28;;;;;;;30.55;18.13;;;;;;;;;;4970010;28;20581;-39
2022/12/05 03:45:57;;;;;;;36.55;19.05;;;;;;;;;;4966542;28;20189;-40
2022/12/05 03:48:32;;;;;;;25.80;16.38;;;;;;;;;;4973296;28;20209;-39
2022/12/05 03:50:59;;;;;;;29.10;17.85;;;;;;;;;;4972883;28;20169;-39
2022/12/05 03:53:46;;;;;;;28.33;17.77;;;;;;;;;;4973214;28;20212;-39
2022/12/05 03:56:14;;;;;;;28.52;16.77;;;;;;;;;;4973398;28;20174;-40
2022/12/05 03:58:44;;;;;;;30.08;17.40;;;;;;;;;;4965174;28;20655;-40
2022/12/05 04:01:11;;;;;;;33.28;17.63;;;;;;;;;;4968431;28;20619;-40
2022/12/05 04:03:43;;;;;;;30.08;17.80;;;;;;;;;;4973032;28;20260;-40
2022/12/05 04:06:18;;;;;;;32.88;19.45;;;;;;;;;;4973073;28;20173;-40
2022/12/05 04:08:47;;;;;;;31.58;18.05;;;;;;;;;;4974284;28;20211;-40
2022/12/05 04:11:19;;;;;;;28.02;16.25;;;;;;;;;;4972475;28;20201;-40
2022/12/05 04:13:45;;;;;;;30.58;18.95;;;;;;;;;;4972393;28;20540;-40
2022/12/05 04:19:02;;;;;;;28.13;17.58;;;;;;;;;;4967076;28;20416;-40
2022/12/05 04:21:39;;;;;;;29.60;16.77;;;;;;;;;;4963558;28;20213;-40
2022/12/05 04:27:10;;;;;;;25.35;15.95;;;;;;;;;;4968210;28;20693;-40
2022/12/05 04:29:52;;;;;;;30.03;18.50;;;;;;;;;;4973895;28;20237;-40
2022/12/05 04:32:19;;;;;;;27.58;17.88;;;;;;;;;;4968746;28;20440;-40
2022/12/05 04:34:48;;;;;;;29.80;16.95;;;;;;;;;;4972635;28;20538;-40
2022/12/05 04:37:16;;;;;;;28.75;16.83;;;;;;;;;;4972789;28;20685;-40
2022/12/05 04:39:51;;;;;;;31.17;17.85;;;;;;;;;;4964562;28;20169;-40
2022/12/05 04:42:19;;;;;;;31.02;17.45;;;;;;;;;;4972131;28;20236;-40
2022/12/05 04:44:57;;;;;;;31.70;17.27;;;;;;;;;;4972667;28;20181;-40
2022/12/05 04:47:26;;;;;;;32.00;16.70;;;;;;;;;;4972472;28;20169;-40
2022/12/05 04:49:53;;;;;;;27.77;16.02;;;;;;;;;;4972748;28;20581;-40
2022/12/05 04:52:19;;;;;;;29.02;16.67;;;;;;;;;;4972109;28;20193;-40
2022/12/05 04:54:52;;;;;;;33.03;16.33;;;;;;;;;;4972518;28;20197;-41
2022/12/05 04:57:21;;;;;;;27.33;16.65;;;;;;;;;;4972686;28;20211;-40
2022/12/05 04:59:48;;;;;;;28.05;16.13;;;;;;;;;;4964822;28;20176;-40
2022/12/05 05:02:16;;;;;;;25.45;16.00;;;;;;;;;;4972083;28;20608;-40
2022/12/05 05:04:45;;;;;;;25.55;15.73;;;;;;;;;;4964396;28;20182;-40
2022/12/05 05:07:12;;;;;;;26.10;15.85;;;;;;;;;;4972454;28;20260;-40
2022/12/05 05:09:38;;;;;;;22.75;16.27;;;;;;;;;;4972365;28;20611;-40
2022/12/05 05:12:04;;;;;;;28.23;16.08;;;;;;;;;;4971989;28;20189;-40
2022/12/05 05:14:30;;;;;;;26.67;15.85;;;;;;;;;;4972372;28;20174;-40
2022/12/05 05:16:56;;;;;;;29.70;16.52;;;;;;;;;;4967687;28;20189;-40
2022/12/05 05:19:22;;;;;;;28.97;16.30;;;;;;;;;;4969093;28;20252;-40
2022/12/05 05:21:48;;;;;;;27.53;15.97;;;;;;;;;;4971836;28;20425;-40
2022/12/05 05:24:15;;;;;;;25.57;15.90;;;;;;;;;;4965859;28;20492;-40
2022/12/05 05:26:42;;;;;;;31.52;17.05;;;;;;;;;;4970596;28;20564;-40
2022/12/05 05:29:09;;;;;;;28.10;17.25;;;;;;;;;;4975987;28;20201;-43
2022/12/05 05:31:35;;;;;;;27.55;15.40;;;;;;;;;;4975265;28;20209;-43
2022/12/05 05:34:02;;;;;;;29.75;16.42;;;;;;;;;;4975807;28;20170;-42
2022/12/05 05:36:27;;;;;;;26.02;16.02;;;;;;;;;;4983082;28;20181;-42
2022/12/05 05:38:55;;;;;;;30.17;17.57;;;;;;;;;;4976876;28;20304;-43
2022/12/05 05:41:28;;;;;;;29.67;15.52;;;;;;;;;;4975245;28;20420;-42
2022/12/05 05:43:55;;;;;;;23.65;15.95;;;;;;;;;;4975585;28;20204;-43
2022/12/05 05:46:22;;;;;;;27.27;15.20;;;;;;;;;;4968963;28;20613;-43
2022/12/05 05:48:48;;;;;;;28.33;15.98;;;;;;;;;;4975667;28;20252;-41
2022/12/05 05:51:15;;;;;;;26.55;14.52;;;;;;;;;;4975070;28;20224;-40
2022/12/05 05:53:41;;;;;;;27.45;15.68;;;;;;;;;;4975442;28;20256;-40
2022/12/05 05:56:08;;;;;;;26.70;16.48;;;;;;;;;;4975434;28;20537;-40
2022/12/05 05:58:34;;;;;;;25.50;14.70;;;;;;;;;;4973539;28;20184;-40
2022/12/05 06:01:03;;;;;;;26.15;16.45;;;;;;;;;;4969079;28;20178;-40
2022/12/05 06:03:29;;;;;;;26.13;15.82;;;;;;;;;;4974915;28;20620;-40
2022/12/05 06:05:56;;;;;;;27.60;16.90;;;;;;;;;;4967817;28;20174;-40
2022/12/05 06:08:22;;;;;;;26.42;14.27;;;;;;;;;;4975033;28;20448;-40
2022/12/05 06:10:48;;;;;;;28.30;15.07;;;;;;;;;;4974826;28;20193;-40
2022/12/05 06:13:14;;;;;;;31.57;15.37;;;;;;;;;;4974983;28;20429;-40
2022/12/05 06:15:40;;;;;;;24.50;14.93;;;;;;;;;;4974851;28;20504;-40
2022/12/05 06:18:06;;;;;;;29.97;16.83;;;;;;;;;;4975048;28;20409;-40
2022/12/05 06:20:32;;;;;;;32.57;16.40;;;;;;;;;;4974825;28;20788;-40
2022/12/05 06:22:58;;;;;;;25.57;16.30;;;;;;;;;;4974622;28;20464;-40
2022/12/05 06:25:24;;;;;;;21.77;16.03;;;;;;;;;;4974987;28;20420;-40
2022/12/05 06:27:50;;;;;;;28.20;15.85;;;;;;;;;;4974673;28;20821;-40
2022/12/05 06:30:16;;;;;;;26.17;16.30;;;;;;;;;;4974714;28;20178;-40
2022/12/05 06:32:42;;;;;;;24.63;15.55;;;;;;;;;;4974470;28;20448;-40
2022/12/05 06:35:14;;;;;;;24.10;14.90;;;;;;;;;;4974276;28;20177;-40
2022/12/05 06:37:41;;;;;;;27.50;16.58;;;;;;;;;;4974489;28;20974;-40
2022/12/05 06:40:07;;;;;;;28.92;14.85;;;;;;;;;;4974546;28;20169;-40
2022/12/05 06:42:33;;;;;;;24.08;15.32;;;;;;;;;;4972728;28;20213;-40
2022/12/05 06:44:59;;;;;;;25.10;16.60;;;;;;;;;;4980132;28;20170;-40
2022/12/05 06:47:25;;;;;;;32.43;16.40;;;;;;;;;;4974519;28;20949;-40
2022/12/05 06:49:51;;;;;;;30.27;17.40;;;;;;;;;;4974357;28;21036;-40
2022/12/05 06:52:17;;;;;;;27.37;16.47;;;;;;;;;;4972455;28;20842;-40
2022/12/05 06:54:43;;;;;;;25.70;15.30;;;;;;;;;;4977529;28;20412;-40
2022/12/05 06:57:09;;;;;;;32.83;17.90;;;;;;;;;;4976847;28;20209;-40
2022/12/05 06:59:35;;;;;;;23.63;15.70;;;;;;;;;;4974039;28;20202;-41
2022/12/05 07:02:01;;;;;;;26.93;16.73;;;;;;;;;;4971696;28;20225;-40
2022/12/05 07:04:28;;;;;;;29.77;16.27;;;;;;;;;;4977397;28;20504;-40
2022/12/05 07:06:58;;;;;;;24.67;15.32;;;;;;;;;;4977055;28;20189;-40
2022/12/05 07:12:10;;;;;;;22.75;14.57;;;;;;;;;;4974450;28;20242;-40
2022/12/05 07:14:36;;;;;;;22.10;16.48;;;;;;;;;;4977692;28;20181;-40
2022/12/05 07:17:02;;;;;;;24.63;16.07;;;;;;;;;;4974336;28;20178;-40
2022/12/05 07:19:28;;;;;;;25.27;15.77;;;;;;;;;;4973840;28;20417;-40
2022/12/05 07:21:54;;;;;;;21.02;15.35;;;;;;;;;;4973525;28;20494;-41
2022/12/05 07:24:20;;;;;;;26.80;15.00;;;;;;;;;;4965651;28;20169;-40
2022/12/05 07:26:46;;;;;;;19.33;14.73;;;;;;;;;;4969491;28;20448;-40
2022/12/05 07:29:12;;;;;;;23.10;15.10;;;;;;;;;;4973495;28;20461;-40
2022/12/05 07:31:38;;;;;;;18.80;14.33;;;;;;;;;;4973324;28;20416;-40
2022/12/05 07:34:04;;;;;;;20.17;14.65;;;;;;;;;;4973478;28;20914;-40
2022/12/05 07:36:31;;;;;;;21.27;14.40;;;;;;;;;;4973784;28;20188;-40
2022/12/05 07:38:57;;;;;;;19.15;14.23;;;;;;;;;;4973493;28;20421;-40
2022/12/05 07:41:34;;;;;;;20.33;13.82;;;;;;;;;;4973267;28;20195;-40
2022/12/05 07:44:00;;;;;;;24.45;14.57;;;;;;;;;;4968134;28;20185;-40
2022/12/05 07:46:27;;;;;;;24.43;15.47;;;;;;;;;;4972064;28;20190;-41
2022/12/05 07:48:54;;;;;;;22.27;14.30;;;;;;;;;;4973280;28;20547;-41
2022/12/05 07:51:20;;;;;;;20.90;13.75;;;;;;;;;;4972003;28;20631;-40
2022/12/05 07:53:46;;;;;;;19.58;14.63;;;;;;;;;;4965029;28;20881;-40
2022/12/05 07:56:15;;;;;;;21.50;14.27;;;;;;;;;;4968834;28;20170;-40
2022/12/05 07:58:42;;;;;;;21.55;13.73;;;;;;;;;;4972997;28;20178;-40
2022/12/05 08:01:08;;;;;;;20.38;13.75;;;;;;;;;;4966618;28;20178;-40
2022/12/05 08:03:36;;;;;;;17.55;11.30;;;;;;;;;;4971426;28;20208;-40
2022/12/05 08:06:06;;;;;;;20.10;13.48;;;;;;;;;;4972962;28;20170;-40
2022/12/05 08:08:32;;;;;;;18.02;11.55;;;;;;;;;;4973011;28;20205;-41
2022/12/05 08:11:02;;;;;;;23.33;13.10;;;;;;;;;;4972765;28;20250;-40
2022/12/05 08:13:29;;;;;;;19.13;12.50;;;;;;;;;;4964833;28;20191;-40
2022/12/05 08:15:55;;;;;;;22.92;12.93;;;;;;;;;;4972902;28;20607;-40
2022/12/05 08:18:20;;;;;;;21.00;12.40;;;;;;;;;;4972774;28;20256;-40
2022/12/05 08:20:46;;;;;;;15.47;11.17;;;;;;;;;;4964549;28;20914;-41
2022/12/05 08:23:12;;;;;;;20.05;11.98;;;;;;;;;;4965906;28;20959;-40
2022/12/05 08:25:38;;;;;;;19.63;12.53;;;;;;;;;;4971760;28;20185;-40
2022/12/05 08:28:04;;;;;;;14.97;11.20;;;;;;;;;;4973263;28;20465;-40
2022/12/05 08:30:30;;;;;;;13.90;10.73;;;;;;;;;;4972613;28;20406;-40
2022/12/05 08:32:56;;;;;;;16.08;11.93;;;;;;;;;;4972573;28;20878;-40
2022/12/05 08:35:22;;;;;;;16.33;12.17;;;;;;;;;;4975015;28;20178;-41
2022/12/05 08:37:48;;;;;;;18.63;12.20;;;;;;;;;;4972827;28;20468;-41
2022/12/05 08:40:14;;;;;;;19.23;11.50;;;;;;;;;;4965374;28;20468;-40
2022/12/05 08:42:40;;;;;;;14.77;11.55;;;;;;;;;;4971538;28;20459;-40
2022/12/05 08:45:06;;;;;;;22.80;11.93;;;;;;;;;;4972507;28;20182;-41
2022/12/05 08:47:32;;;;;;;13.27;11.60;;;;;;;;;;4972560;28;20770;-40
2022/12/05 08:49:58;;;;;;;17.83;12.03;;;;;;;;;;4972229;28;20197;-41
2022/12/05 08:52:24;;;;;;;21.13;10.47;;;;;;;;;;4972246;28;20417;-41
2022/12/05 08:54:50;;;;;;;17.23;11.37;;;;;;;;;;4964558;28;20415;-40
2022/12/05 08:57:16;;;;;;;17.63;12.33;;;;;;;;;;4965326;28;20496;-40
2022/12/05 08:59:42;;;;;;;14.53;12.57;;;;;;;;;;4974242;28;20463;-40
2022/12/05 09:02:09;;;;;;;17.30;11.50;;;;;;;;;;4975796;28;20441;-41
2022/12/05 09:04:35;;;;;;;14.63;11.45;;;;;;;;;;4974875;28;20807;-40
2022/12/05 09:07:02;;;;;;;16.93;11.07;;;;;;;;;;4975962;28;20177;-40
2022/12/05 09:09:29;;;;;;;18.95;12.40;;;;;;;;;;4976062;28;20459;-41
2022/12/05 09:11:56;;;;;;;16.83;11.60;;;;;;;;;;4975619;28;20329;-41
2022/12/05 09:14:23;;;;;;;16.27;11.10;;;;;;;;;;4976076;28;20174;-41
2022/12/05 09:16:49;;;;;;;16.25;11.35;;;;;;;;;;4975960;28;20203;-40
2022/12/05 09:19:16;;;;;;;15.93;11.50;;;;;;;;;;4968073;28;20635;-40
2022/12/05 09:21:43;;;;;;;18.90;11.18;;;;;;;;;;4975429;28;20192;-41
2022/12/05 09:24:10;;;;;;;14.18;11.02;;;;;;;;;;4975911;28;20181;-40
2022/12/05 09:26:36;;;;;;;14.82;9.98;;;;;;;;;;4975630;28;20192;-39
2022/12/05 09:29:02;;;;;;;16.47;10.03;;;;;;;;;;4975722;28;20202;-40
2022/12/05 09:31:29;;;;;;;15.93;10.73;;;;;;;;;;4975375;28;20413;-40
2022/12/05 09:33:55;;;;;;;14.13;10.98;;;;;;;;;;4975662;28;20284;-40
2022/12/05 09:36:23;;;;;;;13.23;10.50;;;;;;;;;;4967757;28;20174;-40
2022/12/05 09:38:49;;;;;;;22.73;13.07;;;;;;;;;;4975628;28;20170;-41
2022/12/05 09:44:28;;;;;;;14.30;11.30;;;;;;;;;;4972020;28;20264;-41
2022/12/05 09:47:08;;;;;;;15.50;11.63;;;;;;;;;;4979046;28;20185;-40
2022/12/05 09:49:38;;;;;;;19.88;12.48;;;;;;;;;;4975378;28;20225;-40
2022/12/05 09:52:05;;;;;;;16.00;12.45;;;;;;;;;;4972114;28;20230;-40
2022/12/05 09:54:31;;;;;;;15.95;11.98;;;;;;;;;;4973256;28;20260;-40
2022/12/05 09:56:57;;;;;;;19.83;13.93;;;;;;;;;;4972695;28;20922;-40
2022/12/05 09:59:23;;;;;;;15.68;11.43;;;;;;;;;;4975038;28;20229;-40
2022/12/05 10:02:10;;;;;;;18.10;12.30;;;;;;;;;;4974711;28;20208;-41
2022/12/05 10:04:48;;;;;;;20.23;13.30;;;;;;;;;;4967122;28;20264;-40
2022/12/05 10:07:24;;;;;;;18.17;13.10;;;;;;;;;;4975419;28;20306;-40
2022/12/05 10:10:09;;;;;;;16.65;12.70;;;;;;;;;;4966891;28;20596;-41
2022/12/05 10:12:35;;;;;;;19.60;13.55;;;;;;;;;;4973068;28;20216;-41
2022/12/05 10:15:03;;;;;;;17.87;12.10;;;;;;;;;;4974683;28;20550;-40
2022/12/05 10:17:33;;;;;;;20.48;12.85;;;;;;;;;;4974771;28;20422;-40
2022/12/05 10:20:02;;;;;;;18.10;13.50;;;;;;;;;;4974960;28;20297;-40
2022/12/05 10:22:30;;;;;;;16.92;12.52;;;;;;;;;;4974882;28;20240;-40
2022/12/05 10:24:59;;;;;;;16.30;12.45;;;;;;;;;;4974761;28;20187;-40
2022/12/05 10:27:40;;;;;;;16.65;12.07;;;;;;;;;;4974366;28;20182;-41
2022/12/05 10:30:09;;;;;;;19.20;13.90;;;;;;;;;;4974414;28;20192;-40
2022/12/05 10:32:39;;;;;;;20.13;12.07;;;;;;;;;;4970747;28;20734;-40
2022/12/05 10:35:16;;;;;;;20.45;13.60;;;;;;;;;;4974697;28;20172;-40
2022/12/05 10:37:46;;;;;;;16.70;12.40;;;;;;;;;;4973948;28;20173;-40
2022/12/05 10:40:12;;;;;;;18.50;12.63;;;;;;;;;;4974321;28;20170;-40
2022/12/05 10:42:38;;;;;;;17.08;12.13;;;;;;;;;;4973854;28;20206;-46
2022/12/05 10:45:06;;;;;;;18.27;12.80;;;;;;;;;;4974602;28;20704;-40
2022/12/05 10:47:33;;;;;;;21.67;13.68;;;;;;;;;;4974289;28;20410;-40
2022/12/05 10:50:02;;;;;;;24.13;13.82;;;;;;;;;;4974236;28;20210;-40
2022/12/05 10:52:29;;;;;;;18.15;12.80;;;;;;;;;;4977364;28;20216;-41
2022/12/05 10:54:59;;;;;;;16.52;13.18;;;;;;;;;;4974139;28;20644;-41
2022/12/05 10:57:28;;;;;;;19.85;13.98;;;;;;;;;;4969422;28;20176;-41
2022/12/05 10:59:55;;;;;;;19.40;12.40;;;;;;;;;;4974165;28;20178;-40
2022/12/05 11:02:26;;;;;;;20.00;13.75;;;;;;;;;;4973482;28;20206;-40
2022/12/05 11:04:52;;;;;;;17.63;12.75;;;;;;;;;;4974572;28;20185;-40
2022/12/05 11:07:27;;;;;;;15.70;12.40;;;;;;;;;;4973847;28;20267;-40
2022/12/05 11:09:53;;;;;;;17.15;12.40;;;;;;;;;;4966682;28;20204;-40
2022/12/05 11:12:20;;;;;;;16.23;12.18;;;;;;;;;;4973408;28;20201;-40
2022/12/05 11:14:58;;;;;;;20.33;13.63;;;;;;;;;;4973853;28;20651;-40
2022/12/05 11:17:30;;;;;;;21.10;13.07;;;;;;;;;;4972637;28;20176;-40
2022/12/05 11:19:56;;;;;;;23.45;12.65;;;;;;;;;;4973062;28;20173;-40
2022/12/05 11:22:30;;;;;;;22.02;14.25;;;;;;;;;;4972616;28;20193;-40
2022/12/05 11:24:56;;;;;;;16.50;11.75;;;;;;;;;;4973500;28;20193;-41
2022/12/05 11:27:31;;;;;;;20.60;12.87;;;;;;;;;;4973677;28;20181;-40
2022/12/05 11:29:59;;;;;;;19.75;12.80;;;;;;;;;;4973125;28;20526;-40
2022/12/05 11:32:26;;;;;;;20.60;13.00;;;;;;;;;;4972985;28;20613;-40
2022/12/05 11:35:04;;;;;;;21.17;15.07;;;;;;;;;;4973517;28;20177;-39
2022/12/05 11:37:33;;;;;;;21.55;14.13;;;;;;;;;;4974033;28;20204;-39
2022/12/05 11:40:00;;;;;;;18.60;13.30;;;;;;;;;;4973430;28;20244;-40
2022/12/05 11:42:41;;;;;;;21.85;14.25;;;;;;;;;;4972776;28;20394;-39
2022/12/05 11:45:26;;;;;;;23.73;15.10;;;;;;;;;;4973291;28;20178;-40
2022/12/05 11:48:10;;;;;;;24.10;15.25;;;;;;;;;;4973005;28;20664;-40
2022/12/05 11:50:48;;;;;;;24.45;13.07;;;;;;;;;;4953746;29;20178;-40
2022/12/05 11:53:39;;;;;;;24.60;14.40;;;;;;;;;;4968851;28;20197;-41
2022/12/05 11:56:31;;;;;;;20.77;14.57;;;;;;;;;;4953986;28;20180;-40
2022/12/05 11:59:16;;;;;;;27.55;13.82;;;;;;;;;;4954438;28;20224;-40
2022/12/05 12:01:45;;;;;;;22.15;14.40;;;;;;;;;;4965204;28;20260;-40
2022/12/05 12:04:11;;;;;;;19.88;13.10;;;;;;;;;;4974074;28;20232;-40
2022/12/05 12:06:55;;;;;;;20.57;14.00;;;;;;;;;;4975247;28;20181;-41
2022/12/05 12:09:32;;;;;;;17.98;12.75;;;;;;;;;;4978494;28;20492;-40
2022/12/05 12:12:03;;;;;;;23.48;14.63;;;;;;;;;;4974896;28;20201;-40
2022/12/05 12:14:41;;;;;;;17.48;12.60;;;;;;;;;;4978262;28;20177;-41
2022/12/05 12:17:26;;;;;;;40.72;13.68;;;;;;;;;;4975321;28;20169;-40
2022/12/05 12:19:52;;;;;;;18.83;12.38;;;;;;;;;;4975726;28;20173;-40
2022/12/05 12:22:27;;;;;;;26.90;12.70;;;;;;;;;;4975682;28;20340;-41
2022/12/05 12:25:18;;;;;;;19.73;12.90;;;;;;;;;;4974110;28;20459;-40
2022/12/05 12:27:52;;;;;;;32.00;13.20;;;;;;;;;;4964751;28;20208;-41
2022/12/05 12:30:20;;;;;;;16.42;12.80;;;;;;;;;;4972922;28;20252;-40
2022/12/05 12:32:55;;;;;;;17.52;12.30;;;;;;;;;;4972773;28;20197;-39
2022/12/05 12:35:32;;;;;;;39.25;13.65;;;;;;;;;;4964080;28;20173;-41
2022/12/05 12:38:07;;;;;;;17.23;13.00;;;;;;;;;;4972340;28;20173;-40
2022/12/05 12:40:42;;;;;;;15.57;13.57;;;;;;;;;;4968964;28;20233;-40
2022/12/05 12:43:17;;;;;;;18.70;13.00;;;;;;;;;;4968602;28;20256;-41
2022/12/05 12:45:55;;;;;;;25.58;13.20;;;;;;;;;;4972742;28;20184;-39
2022/12/05 12:48:36;;;;;;;19.27;12.75;;;;;;;;;;4972300;28;20205;-42
2022/12/05 12:51:03;;;;;;;20.50;14.90;;;;;;;;;;4971934;28;20225;-39
2022/12/05 12:53:41;;;;;;;21.55;15.00;;;;;;;;;;4970877;28;20208;-41
2022/12/05 12:56:07;;;;;;;46.30;14.80;;;;;;;;;;4967275;28;20173;-40
2022/12/05 12:58:44;;;;;;;44.37;14.80;;;;;;;;;;4975836;28;20180;-39
2022/12/05 13:01:28;;;;;;;26.27;13.35;;;;;;;;;;4971946;28;20405;-40
2022/12/05 13:04:01;;;;;;;25.10;13.98;;;;;;;;;;4965222;28;20217;-39
2022/12/05 13:06:30;;;;;;;17.85;14.13;;;;;;;;;;4972194;28;20534;-40
2022/12/05 13:08:59;;;;;;;20.00;13.45;;;;;;;;;;4964172;28;20900;-40
2022/12/05 13:11:27;;;;;;;23.08;13.60;;;;;;;;;;4971809;28;20177;-40
2022/12/05 13:13:56;;;;;;;24.88;15.07;;;;;;;;;;4975059;28;20271;-40
2022/12/05 13:16:27;;;;;;;33.20;13.52;;;;;;;;;;4971842;28;20714;-41
2022/12/05 13:18:54;;;;;;;20.38;13.18;;;;;;;;;;4971759;28;20683;-39
2022/12/05 13:21:20;;;;;;;23.63;13.98;;;;;;;;;;4971716;28;20232;-39
2022/12/05 13:23:48;;;;;;;20.30;13.30;;;;;;;;;;4971623;28;20205;-39
2022/12/05 13:26:14;;;;;;;23.63;12.80;;;;;;;;;;4974225;28;20639;-40
2022/12/05 13:28:54;;;;;;;18.13;12.18;;;;;;;;;;4964728;28;20221;-40
2022/12/05 13:31:33;;;;;;;19.92;13.05;;;;;;;;;;4967939;28;20201;-40
2022/12/05 13:33:59;;;;;;;23.90;14.25;;;;;;;;;;4971840;28;20177;-40
2022/12/05 13:42:16;;;;;;;18.13;12.40;;;;;;;;;;4967996;28;20299;-40
2022/12/05 13:44:53;;;;;;;20.38;12.05;;;;;;;;;;4970568;28;20208;-40
2022/12/05 13:47:39;;;;;;;14.68;10.95;;;;;;;;;;4971505;28;20209;-40
2022/12/05 13:50:06;;;;;;;15.65;11.50;;;;;;;;;;4970315;28;20240;-40
2022/12/05 13:52:41;;;;;;;14.13;11.30;;;;;;;;;;4975611;28;20702;-40
2022/12/05 13:55:22;;;;;;;14.82;11.27;;;;;;;;;;4979658;28;20189;-41
2022/12/05 13:57:52;;;;;;;15.13;11.70;;;;;;;;;;4989876;28;20162;-39
2022/12/05 14:00:20;;;;;;;12.93;10.50;;;;;;;;;;4977420;28;20173;-40
2022/12/05 14:02:48;;;;;;;14.32;11.38;;;;;;;;;;4968271;28;20194;-40
2022/12/05 14:05:14;;;;;;;12.25;10.57;;;;;;;;;;4975461;28;20201;-41
2022/12/05 14:07:44;;;;;;;15.17;10.97;;;;;;;;;;4975716;28;20185;-40
2022/12/05 14:10:12;;;;;;;15.10;10.65;;;;;;;;;;4974956;28;20468;-41
2022/12/05 14:17:54;;;;;;;23.45;11.50;;;;;;;;;;5313571;23;20204;-44
2022/12/05 14:20:20;;;;;;;12.27;10.20;;;;;;;;;;4997169;28;20226;-44
2022/12/05 14:22:46;;;;;;;21.17;9.90;;;;;;;;;;4993846;28;20677;-44
2022/12/05 14:25:18;;;;;;;13.70;9.87;;;;;;;;;;4994171;28;20396;-45
2022/12/05 14:27:50;;;;;;;29.10;10.88;;;;;;;;;;5001851;28;20424;-44
2022/12/05 14:30:31;;;;;;;26.17;10.45;;;;;;;;;;5002347;28;20190;-44
2022/12/05 14:33:00;;;;;;;15.18;8.70;;;;;;;;;;5003963;28;20223;-45
2022/12/05 14:35:40;;;;;;;16.85;10.18;;;;;;;;;;5011006;28;20670;-43
2022/12/05 14:38:07;;;;;;;13.95;9.25;;;;;;;;;;4998245;28;20617;-42
2022/12/05 14:40:40;;;;;;;11.30;9.85;;;;;;;;;;5004470;28;20192;-43
2022/12/05 14:43:18;;;;;;;14.23;10.88;;;;;;;;;;4991692;28;20176;-42
2022/12/05 14:45:53;;;;;;;15.57;10.60;;;;;;;;;;5004012;28;20180;-42
2022/12/05 14:48:19;;;;;;;29.58;9.77;;;;;;;;;;5004134;28;20225;-42
2022/12/05 14:50:50;;;;;;;34.97;10.70;;;;;;;;;;5001365;28;20560;-42
2022/12/05 14:53:25;;;;;;;11.30;10.15;;;;;;;;;;5002571;28;20403;-42